Laredo, Missouri
Current Conditions -  °F | °C
As of 3:55 AM on Monday 26 Jan 2015 (Local Time) from KIRK Reporting Station
Overcast Overcast  
Wind Chill: 25°   Ceiling: 1900
Heat Index: 30°   Visibility: 10mi
Dew Point: 26°   Wind: 5mph
Humidity: 85%   Direction: 280°W
Pressure: 30.04"   Gusts: NA
Location:  40.03°N, 93.45°W
Report Text: KIRK 260955Z AUTO 28004KT 10SM OVC019 M01/M03 A3004 RMK AO2 SLP186 T10111033 $
Loading
Personal Weather Stations






























Interactive Weather Map New forecast layout! Learn more

10-Day Weather Forecast

Advertisements
Track Severe Weather on mobile